Time;durP1;ratioP1;P1;durP2;ratioP2;P2;SDS_P1;SDS_P2;PMS_P1;PMS_P2;Temp;Humidity;BMP_temperature;BMP_pressure;BME280_temperature;BME280_humidity;BME280_pressure;Samples;Min_cycle;Max_cycle;Signal;HPM_P1;HPM_P2
2022/11/10 00:00:31;;;;;;;;;;;;;;;8.76;93.67969;101604.4;;;;-80
2022/11/10 00:03:51;;;;;;;6.1;1.6;;;;;;;;;;;;;-80
2022/11/10 00:05:25;;;;;;;;;;;;;;;8.79;94.14746;101620.8;;;;-79
2022/11/10 00:10:55;;;;;;;;;;;;;;;8.81;94.16406;101625.2;;;;-79
2022/11/10 00:20:24;;;;;;;;;;;;;;;8.8;93.96191;101615.1;;;;-80
2022/11/10 00:25:24;;;;;;;;;;;;;;;8.8;93.91895;101617.9;;;;-80
2022/11/10 00:30:33;;;;;;;;;;;;;;;8.79;94.08105;101624.1;;;;-79
2022/11/10 00:33:55;;;;;;;9;1.6;;;;;;;;;;;;;-79
2022/11/10 00:35:24;;;;;;;;;;;;;;;8.78;93.93848;101635.5;;;;-79
2022/11/10 00:40:24;;;;;;;;;;;;;;;8.77;94.47461;101640.3;;;;-78
2022/11/10 00:45:27;;;;;;;;;;;;;;;8.76;94.26172;101654.8;;;;-78
2022/11/10 00:50:27;;;;;;;;;;;;;;;8.77;94.09961;101663.4;;;;-80
2022/11/10 00:55:26;;;;;;;;;;;;;;;8.76;94.30566;101665.2;;;;-79
2022/11/10 01:00:21;;;;;;;;;;;;;;;8.78;94.4082;101655.1;;;;-79
2022/11/10 01:01:18;;;;;;;;;;;;;;;8.86;94.2832;101660.7;;;;-78
2022/11/10 01:03:58;;;;;;;6.3;1.6;;;;;;;;;;;;;-79
2022/11/10 01:04:19;;;;;;;;;;;;;;;8.74;94.44434;101660.8;;;;-79
2022/11/10 01:09:19;;;;;;;;;;;;;;;8.7;94.32715;101659.9;;;;-80
2022/11/10 01:14:27;;;;;;;;;;;;;;;8.7;94.40332;101658.6;;;;-80
2022/11/10 01:19:25;;;;;;;;;;;;;;;8.7;94.58984;101660.1;;;;-79
2022/11/10 01:21:37;;;;;;;;;;;;;;;8.79;94.31152;101657;;;;-79
2022/11/10 01:24:39;;;;;;;;;;;;;;;8.71;94.17285;101658.1;;;;-79
2022/11/10 01:29:26;;;;;;;;;;;;;;;8.68;94.76172;101666.5;;;;-79
2022/11/10 01:33:53;;;;;;;11.3;1.5;;;;;;;;;;;;;-79
2022/11/10 01:34:28;;;;;;;;;;;;;;;8.7;94.67578;101685;;;;-79
2022/11/10 01:39:28;;;;;;;;;;;;;;;8.72;94.5498;101702;;;;-79
2022/11/10 01:44:29;;;;;;;;;;;;;;;8.72;94.5918;101694.7;;;;-79
2022/11/10 01:49:32;;;;;;;;;;;;;;;8.74;94.86133;101695.3;;;;-78
2022/11/10 01:54:29;;;;;;;;;;;;;;;8.76;95.12891;101693;;;;-78
2022/11/10 01:59:32;;;;;;;;;;;;;;;8.79;95.09082;101705.3;;;;-80
2022/11/10 02:03:53;;;;;;;7.5;1.3;;;;;;;;;;;;;-78
2022/11/10 02:04:30;;;;;;;;;;;;;;;8.85;95.10449;101707.9;;;;-79
2022/11/10 02:09:44;;;;;;;;;;;;;;;8.88;95.07715;101713.2;;;;-79
2022/11/10 02:14:31;;;;;;;;;;;;;;;8.9;95.30078;101730;;;;-79
2022/11/10 02:19:30;;;;;;;;;;;;;;;8.92;95.5791;101726;;;;-79
2022/11/10 02:24:30;;;;;;;;;;;;;;;8.94;95.34375;101721.4;;;;-78
2022/11/10 02:29:29;;;;;;;;;;;;;;;8.94;95.25586;101730.6;;;;-79
2022/11/10 02:33:54;;;;;;;7.5;1.4;;;;;;;;;;;;;-78
2022/11/10 02:34:31;;;;;;;;;;;;;;;8.99;95.70508;101742.1;;;;-79
2022/11/10 02:39:44;;;;;;;;;;;;;;;9.01;95.52441;101746.8;;;;-79
2022/11/10 02:44:38;;;;;;;;;;;;;;;9.02;95.37305;101751.7;;;;-78
2022/11/10 02:49:27;;;;;;;;;;;;;;;9.06;95.54492;101751.2;;;;-79
2022/11/10 02:54:27;;;;;;;;;;;;;;;9.07;95.62402;101742.1;;;;-79
2022/11/10 02:59:26;;;;;;;;;;;;;;;9.07;95.56934;101746.5;;;;-79
2022/11/10 03:03:52;;;;;;;9.2;1.7;;;;;;;;;;;;;-79
2022/11/10 03:04:25;;;;;;;;;;;;;;;9.1;95.53125;101750.2;;;;-78
2022/11/10 03:09:30;;;;;;;;;;;;;;;9.08;95.58203;101759.2;;;;-78
2022/11/10 03:14:25;;;;;;;;;;;;;;;9.08;95.42871;101762.6;;;;-79
2022/11/10 03:19:27;;;;;;;;;;;;;;;9.07;95.58008;101767.1;;;;-80
2022/11/10 03:24:25;;;;;;;;;;;;;;;9.06;95.85254;101769.5;;;;-78
2022/11/10 03:29:25;;;;;;;;;;;;;;;9.07;95.87598;101781.3;;;;-78
2022/11/10 03:33:53;;;;;;;8.9;1.7;;;;;;;;;;;;;-78
2022/11/10 03:34:25;;;;;;;;;;;;;;;9.1;95.91504;101792;;;;-79
2022/11/10 03:39:26;;;;;;;;;;;;;;;9.13;96.01074;101798.8;;;;-79
2022/11/10 03:44:26;;;;;;;;;;;;;;;9.16;96.10449;101807.9;;;;-79
2022/11/10 03:49:26;;;;;;;;;;;;;;;9.25;96.76172;101827.1;;;;-79
2022/11/10 03:54:26;;;;;;;;;;;;;;;9.33;97.57031;101827;;;;-78
2022/11/10 03:59:26;;;;;;;;;;;;;;;9.3;96.37891;101832;;;;-78
2022/11/10 04:03:55;;;;;;;10.7;1.7;;;;;;;;;;;;;-79
2022/11/10 04:09:25;;;;;;;;;;;;;;;9.24;95.92578;101839.8;;;;-78
2022/11/10 04:19:26;;;;;;;;;;;;;;;9.2;95.73926;101835.1;;;;-78
2022/11/10 04:24:26;;;;;;;;;;;;;;;9.18;95.90039;101850.3;;;;-78
2022/11/10 04:29:25;;;;;;;;;;;;;;;9.15;95.85059;101863.3;;;;-79
2022/11/10 04:33:54;;;;;;;7.7;1.7;;;;;;;;;;;;;-78
2022/11/10 04:34:25;;;;;;;;;;;;;;;9.13;96.06543;101876;;;;-78
2022/11/10 04:39:25;;;;;;;;;;;;;;;9.1;95.78516;101879.2;;;;-78
2022/11/10 04:44:25;;;;;;;;;;;;;;;9.1;95.77246;101882.9;;;;-79
2022/11/10 04:49:26;;;;;;;;;;;;;;;9.07;95.64648;101890.1;;;;-78
2022/11/10 04:54:25;;;;;;;;;;;;;;;9.04;95.78027;101891.6;;;;-78
2022/11/10 04:59:30;;;;;;;;;;;;;;;9.01;95.76563;101888.3;;;;-79
2022/11/10 05:03:55;;;;;;;12;1.6;;;;;;;;;;;;;-79
2022/11/10 05:04:25;;;;;;;;;;;;;;;9.02;96.16211;101890.4;;;;-78
2022/11/10 05:09:25;;;;;;;;;;;;;;;9.04;95.93457;101894.2;;;;-79
2022/11/10 05:14:26;;;;;;;;;;;;;;;9.08;96.5498;101889.7;;;;-79
2022/11/10 05:19:27;;;;;;;;;;;;;;;9.08;96.5918;101898.7;;;;-78
2022/11/10 05:24:27;;;;;;;;;;;;;;;9.07;96.66602;101904.3;;;;-78
2022/11/10 05:29:25;;;;;;;;;;;;;;;9.04;96.51758;101904.8;;;;-79
2022/11/10 05:33:56;;;;;;;11.4;1.7;;;;;;;;;;;;;-78
2022/11/10 05:34:26;;;;;;;;;;;;;;;9.03;96.4502;101916.8;;;;-78
2022/11/10 05:39:27;;;;;;;;;;;;;;;9.01;96.63281;101922.8;;;;-78
2022/11/10 05:44:25;;;;;;;;;;;;;;;9.02;96.27051;101927.8;;;;-78
2022/11/10 05:49:30;;;;;;;;;;;;;;;9.04;96.60547;101928.6;;;;-78
2022/11/10 05:54:29;;;;;;;;;;;;;;;9.08;96.45996;101935;;;;-79
2022/11/10 05:59:26;;;;;;;;;;;;;;;9.1;96.44238;101946.5;;;;-78
2022/11/10 06:03:56;;;;;;;10.7;1.6;;;;;;;;;;;;;-79
2022/11/10 06:04:25;;;;;;;;;;;;;;;9.15;96.64063;101960;;;;-79
2022/11/10 06:09:25;;;;;;;;;;;;;;;9.18;96.6377;101977.5;;;;-79
2022/11/10 06:14:28;;;;;;;;;;;;;;;9.23;97.07617;101980.5;;;;-78
2022/11/10 06:19:25;;;;;;;;;;;;;;;9.37;98.0957;101974;;;;-79
2022/11/10 06:24:25;;;;;;;;;;;;;;;9.4;97.99023;101979.3;;;;-79
2022/11/10 06:29:25;;;;;;;;;;;;;;;9.4;98.00098;101979.9;;;;-78
2022/11/10 06:33:56;;;;;;;12.8;1.8;;;;;;;;;;;;;-80
2022/11/10 06:34:28;;;;;;;;;;;;;;;9.39;97.82422;101985.3;;;;-79
2022/11/10 06:39:25;;;;;;;;;;;;;;;9.37;97.68848;102006.7;;;;-79
2022/11/10 06:44:26;;;;;;;;;;;;;;;9.32;97.33789;102021.7;;;;-79
2022/11/10 06:49:25;;;;;;;;;;;;;;;9.31;97.44531;102040.1;;;;-80
2022/11/10 06:54:25;;;;;;;;;;;;;;;9.3;97.59668;102037.6;;;;-78
2022/11/10 06:59:25;;;;;;;;;;;;;;;9.31;97.39063;102027;;;;-78
2022/11/10 07:03:57;;;;;;;14.9;1.9;;;;;;;;;;;;;-78
2022/11/10 07:04:25;;;;;;;;;;;;;;;9.31;97.46777;102022.8;;;;-79
2022/11/10 07:09:26;;;;;;;;;;;;;;;9.33;97.51465;102027.1;;;;-79
2022/11/10 07:14:25;;;;;;;;;;;;;;;9.35;98.15625;102028.1;;;;-78
2022/11/10 07:19:31;;;;;;;;;;;;;;;9.35;97.91406;102025.7;;;;-78
2022/11/10 07:24:29;;;;;;;;;;;;;;;9.37;97.83984;102039.1;;;;-78
2022/11/10 07:29:26;;;;;;;;;;;;;;;9.43;97.97656;102047;;;;-79
2022/11/10 07:34:01;;;;;;;14.6;2.1;;;;;;;;;;;;;-79
2022/11/10 07:34:25;;;;;;;;;;;;;;;9.47;98.23535;102056.2;;;;-79
2022/11/10 07:39:25;;;;;;;;;;;;;;;9.54;98.37402;102059;;;;-78
2022/11/10 07:44:26;;;;;;;;;;;;;;;9.58;97.92383;102062.5;;;;-78
2022/11/10 07:49:25;;;;;;;;;;;;;;;9.67;98.20508;102071.4;;;;-78
2022/11/10 07:54:26;;;;;;;;;;;;;;;9.76;97.92871;102064.9;;;;-78
2022/11/10 07:59:25;;;;;;;;;;;;;;;9.85;97.82813;102065;;;;-78
2022/11/10 08:04:01;;;;;;;13.2;2.3;;;;;;;;;;;;;-78
2022/11/10 08:04:27;;;;;;;;;;;;;;;9.95;97.78516;102091.6;;;;-78
2022/11/10 08:09:27;;;;;;;;;;;;;;;10.02;98.4502;102096.6;;;;-78
2022/11/10 08:14:29;;;;;;;;;;;;;;;10.04;98.39844;102108.9;;;;-79
2022/11/10 08:19:27;;;;;;;;;;;;;;;10.06;98.20508;102111;;;;-78
2022/11/10 08:24:27;;;;;;;;;;;;;;;10.1;98.70996;102107;;;;-78
2022/11/10 08:29:28;;;;;;;;;;;;;;;10.17;99.01855;102114;;;;-78
2022/11/10 08:33:59;;;;;;;19.5;3;;;;;;;;;;;;;-79
2022/11/10 08:34:25;;;;;;;;;;;;;;;10.23;99.36523;102130.4;;;;-78
2022/11/10 08:39:25;;;;;;;;;;;;;;;10.29;99.15527;102143;;;;-79
2022/11/10 08:44:25;;;;;;;;;;;;;;;10.31;98.70215;102144.2;;;;-79
2022/11/10 08:49:25;;;;;;;;;;;;;;;10.33;98.48633;102138.8;;;;-78
2022/11/10 08:54:26;;;;;;;;;;;;;;;10.43;98.5752;102141;;;;-79
2022/11/10 08:59:29;;;;;;;;;;;;;;;10.64;99.02734;102137.2;;;;-79
2022/11/10 09:04:00;;;;;;;16.7;3.1;;;;;;;;;;;;;-79
2022/11/10 09:04:27;;;;;;;;;;;;;;;10.93;99.51074;102144.6;;;;-79
2022/11/10 09:09:26;;;;;;;;;;;;;;;11.12;98.40918;102146.9;;;;-78
2022/11/10 09:14:29;;;;;;;;;;;;;;;11.31;97.6582;102144.2;;;;-79
2022/11/10 09:19:28;;;;;;;;;;;;;;;11.37;97.26367;102146.8;;;;-79
2022/11/10 09:24:26;;;;;;;;;;;;;;;11.48;97.22168;102154.4;;;;-78
2022/11/10 09:29:26;;;;;;;;;;;;;;;11.63;96.73535;102156.9;;;;-78
2022/11/10 09:34:03;;;;;;;15.1;2.6;;;;;;;;;;;;;-77
2022/11/10 09:34:30;;;;;;;;;;;;;;;11.6;96.46484;102170.8;;;;-78
2022/11/10 09:39:28;;;;;;;;;;;;;;;11.63;95.90723;102190.3;;;;-78
2022/11/10 09:44:30;;;;;;;;;;;;;;;11.6;96.14453;102190;;;;-78
2022/11/10 09:49:39;;;;;;;;;;;;;;;11.6;96.00098;102212;;;;-78
2022/11/10 09:54:31;;;;;;;;;;;;;;;11.63;95.68652;102225.4;;;;-78
2022/11/10 09:59:28;;;;;;;;;;;;;;;11.7;96.24316;102233.5;;;;-78
2022/11/10 10:04:07;;;;;;;11.5;2.5;;;;;;;;;;;;;-78
2022/11/10 10:04:31;;;;;;;;;;;;;;;11.77;95.41992;102240.1;;;;-77
2022/11/10 10:09:30;;;;;;;;;;;;;;;11.78;95.66504;102235.8;;;;-78
2022/11/10 10:14:34;;;;;;;;;;;;;;;11.89;95.56738;102248.9;;;;-78
2022/11/10 10:19:36;;;;;;;;;;;;;;;11.94;95.19238;102238.7;;;;-79
2022/11/10 10:24:26;;;;;;;;;;;;;;;11.95;95.19434;102247.1;;;;-73
2022/11/10 10:29:33;;;;;;;;;;;;;;;12;94.96094;102248.7;;;;-74
2022/11/10 10:34:04;;;;;;;14.3;2.6;;;;;;;;;;;;;-74
2022/11/10 10:34:29;;;;;;;;;;;;;;;12.1;94.46289;102242.9;;;;-74
2022/11/10 10:39:30;;;;;;;;;;;;;;;12.08;94.50391;102256.5;;;;-74
2022/11/10 10:44:26;;;;;;;;;;;;;;;12.14;94.50586;102255.8;;;;-74
2022/11/10 10:49:27;;;;;;;;;;;;;;;12.19;94.42773;102262;;;;-73
2022/11/10 10:54:32;;;;;;;;;;;;;;;12.25;94.20703;102269.8;;;;-73
2022/11/10 10:59:26;;;;;;;;;;;;;;;12.33;93.95898;102279.7;;;;-74
2022/11/10 11:04:08;;;;;;;11.7;2.3;;;;;;;;;;;;;-73
2022/11/10 11:04:39;;;;;;;;;;;;;;;12.39;93.9834;102289.1;;;;-74
2022/11/10 11:09:28;;;;;;;;;;;;;;;12.45;94.2168;102304.4;;;;-77
2022/11/10 11:14:27;;;;;;;;;;;;;;;12.52;93.91113;102299.8;;;;-78
2022/11/10 11:19:28;;;;;;;;;;;;;;;12.56;93.73047;102307.6;;;;-78
2022/11/10 11:24:29;;;;;;;;;;;;;;;12.6;93.59668;102312;;;;-77
2022/11/10 11:29:39;;;;;;;;;;;;;;;12.67;93.41211;102325.5;;;;-79
2022/11/10 11:34:11;;;;;;;14.5;2.4;;;;;;;;;;;;;-78
2022/11/10 11:34:32;;;;;;;;;;;;;;;12.7;93.44043;102322.2;;;;-77
2022/11/10 11:39:33;;;;;;;;;;;;;;;12.73;93.25977;102314.7;;;;-79
2022/11/10 11:44:36;;;;;;;;;;;;;;;12.86;93.18555;102317.6;;;;-77
2022/11/10 11:49:34;;;;;;;;;;;;;;;12.92;92.88867;102324;;;;-78
2022/11/10 11:54:43;;;;;;;;;;;;;;;13;92.41797;102326.5;;;;-78
2022/11/10 11:59:32;;;;;;;;;;;;;;;13.03;92.49023;102328.8;;;;-78
2022/11/10 12:04:21;;;;;;;15.7;2.6;;;;;;;;;;;;;-77
2022/11/10 12:04:43;;;;;;;;;;;;;;;13.05;92.33887;102337.8;;;;-77
2022/11/10 12:09:30;;;;;;;;;;;;;;;13.05;92.2168;102344.3;;;;-77
2022/11/10 12:14:31;;;;;;;;;;;;;;;13.02;92.2998;102347.6;;;;-77
2022/11/10 12:19:30;;;;;;;;;;;;;;;13.01;92.23145;102343.3;;;;-78
2022/11/10 12:24:37;;;;;;;;;;;;;;;13.01;92.21094;102337.8;;;;-78
2022/11/10 12:29:31;;;;;;;;;;;;;;;13.04;92.19238;102331.7;;;;-78
2022/11/10 12:34:12;;;;;;;18.6;2.4;;;;;;;;;;;;;-78
2022/11/10 12:34:29;;;;;;;;;;;;;;;13.08;92.19141;102346.9;;;;-77
2022/11/10 12:39:27;;;;;;;;;;;;;;;13.14;91.8584;102351.3;;;;-77
2022/11/10 12:44:29;;;;;;;;;;;;;;;13.12;91.91016;102352;;;;-79
2022/11/10 12:49:28;;;;;;;;;;;;;;;13.08;92.10059;102344.4;;;;-79
2022/11/10 12:54:26;;;;;;;;;;;;;;;13.04;92.27246;102342.6;;;;-73
2022/11/10 12:59:34;;;;;;;;;;;;;;;13;92.45117;102331.4;;;;-74
2022/11/10 13:04:10;;;;;;;13.3;2.1;;;;;;;;;;;;;-74
2022/11/10 13:04:26;;;;;;;;;;;;;;;13;92.43945;102337.1;;;;-74
2022/11/10 13:09:35;;;;;;;;;;;;;;;13.04;92.38086;102348;;;;-74
2022/11/10 13:14:27;;;;;;;;;;;;;;;13.09;92.49219;102345.3;;;;-74
2022/11/10 13:19:37;;;;;;;;;;;;;;;13.13;92.32227;102335.1;;;;-77
2022/11/10 13:24:29;;;;;;;;;;;;;;;13.21;92.04004;102336.6;;;;-77
2022/11/10 13:29:33;;;;;;;;;;;;;;;13.26;91.62793;102348.9;;;;-78
2022/11/10 13:34:12;;;;;;;13;1.9;;;;;;;;;;;;;-80
2022/11/10 13:34:40;;;;;;;;;;;;;;;13.25;91.4043;102347.3;;;;-80
2022/11/10 13:39:32;;;;;;;;;;;;;;;13.24;91.22461;102359.1;;;;-78
2022/11/10 13:44:32;;;;;;;;;;;;;;;13.24;91.03613;102367.1;;;;-77
2022/11/10 13:49:37;;;;;;;;;;;;;;;13.2;91.08398;102368.1;;;;-77
2022/11/10 13:54:35;;;;;;;;;;;;;;;13.18;91.07813;102379.3;;;;-74
2022/11/10 13:59:28;;;;;;;;;;;;;;;13.13;91.10254;102389.7;;;;-74
2022/11/10 14:04:26;;;;;;;10.7;1.9;;;;;;;;;;;;;-74
2022/11/10 14:04:49;;;;;;;;;;;;;;;13.09;91.61621;102377.5;;;;-74
2022/11/10 14:09:30;;;;;;;;;;;;;;;13.06;92.19629;102374.9;;;;-78
2022/11/10 14:14:28;;;;;;;;;;;;;;;13.01;92.42188;102394.7;;;;-78
2022/11/10 14:19:35;;;;;;;;;;;;;;;12.98;92.7334;102409.3;;;;-78
2022/11/10 14:24:28;;;;;;;;;;;;;;;12.93;92.89063;102424.4;;;;-78
2022/11/10 14:29:38;;;;;;;;;;;;;;;12.88;92.8457;102413.7;;;;-79
2022/11/10 14:34:19;;;;;;;9.2;1.7;;;;;;;;;;;;;-77
2022/11/10 14:34:29;;;;;;;;;;;;;;;12.85;92.92871;102409.5;;;;-76
2022/11/10 14:39:32;;;;;;;;;;;;;;;12.8;92.85254;102405.9;;;;-78
2022/11/10 14:44:28;;;;;;;;;;;;;;;12.79;92.63965;102395.3;;;;-78
2022/11/10 14:49:29;;;;;;;;;;;;;;;12.78;92.54785;102409.2;;;;-78
2022/11/10 14:54:28;;;;;;;;;;;;;;;12.76;92.50098;102414.3;;;;-78
2022/11/10 14:59:29;;;;;;;;;;;;;;;12.73;92.50488;102419.9;;;;-78
2022/11/10 15:04:18;;;;;;;11.7;2;;;;;;;;;;;;;-78
2022/11/10 15:04:32;;;;;;;;;;;;;;;12.71;92.62109;102416.9;;;;-77
2022/11/10 15:09:30;;;;;;;;;;;;;;;12.72;92.52441;102413.8;;;;-78
2022/11/10 15:14:41;;;;;;;;;;;;;;;12.69;92.33105;102416.7;;;;-77
2022/11/10 15:19:30;;;;;;;;;;;;;;;12.7;92.07813;102412.9;;;;-78
2022/11/10 15:24:29;;;;;;;;;;;;;;;12.68;92.01855;102424;;;;-78
2022/11/10 15:29:27;;;;;;;;;;;;;;;12.7;91.79004;102424.3;;;;-78
2022/11/10 15:34:31;;;;;;;8.7;1.8;;;;;;;;;;;;;-78
2022/11/10 15:34:57;;;;;;;;;;;;;;;12.68;91.54199;102431.2;;;;-77
2022/11/10 15:39:27;;;;;;;;;;;;;;;12.67;91.36133;102440;;;;-77
2022/11/10 15:44:28;;;;;;;;;;;;;;;12.65;91.41309;102436.2;;;;-78
2022/11/10 15:49:37;;;;;;;;;;;;;;;12.63;91.23145;102447.4;;;;-74
2022/11/10 15:54:29;;;;;;;;;;;;;;;12.61;91.05957;102457.7;;;;-78
2022/11/10 15:59:25;;;;;;;;;;;;;;;12.59;90.75879;102460.3;;;;-78
2022/11/10 16:04:25;;;;;;;10.3;1.9;;;;;;;;;;;;;-77
2022/11/10 16:04:35;;;;;;;;;;;;;;;12.54;90.66113;102467;;;;-77
2022/11/10 16:09:26;;;;;;;;;;;;;;;12.47;90.70117;102475.1;;;;-77
2022/11/10 16:14:28;;;;;;;;;;;;;;;12.45;90.55371;102484;;;;-78
2022/11/10 16:19:27;;;;;;;;;;;;;;;12.41;90.67676;102488.5;;;;-78
2022/11/10 16:24:26;;;;;;;;;;;;;;;12.35;90.78613;102488.4;;;;-79
2022/11/10 16:29:28;;;;;;;;;;;;;;;12.31;90.84473;102497.5;;;;-78
2022/11/10 16:34:21;;;;;;;7.7;1.8;;;;;;;;;;;;;-78
2022/11/10 16:34:38;;;;;;;;;;;;;;;12.27;90.68262;102499;;;;-77
2022/11/10 16:39:28;;;;;;;;;;;;;;;12.24;90.78711;102492.2;;;;-77
2022/11/10 16:44:25;;;;;;;;;;;;;;;12.2;90.86621;102498;;;;-79
2022/11/10 16:49:37;;;;;;;;;;;;;;;12.19;90.94141;102499.2;;;;-78
2022/11/10 16:54:25;;;;;;;;;;;;;;;12.17;90.95996;102478.9;;;;-78
2022/11/10 16:59:25;;;;;;;;;;;;;;;12.14;90.84375;102486.8;;;;-78
2022/11/10 17:04:22;;;;;;;11.2;2.2;;;;;;;;;;;;;-77
2022/11/10 17:04:32;;;;;;;;;;;;;;;12.14;90.69824;102500.6;;;;-77
2022/11/10 17:09:28;;;;;;;;;;;;;;;12.12;90.47266;102503.5;;;;-78
2022/11/10 17:14:32;;;;;;;;;;;;;;;12.09;90.4541;102504.3;;;;-78
2022/11/10 17:19:26;;;;;;;;;;;;;;;12.04;90.59082;102506.6;;;;-76
2022/11/10 17:24:29;;;;;;;;;;;;;;;12.01;90.58301;102498.7;;;;-78
2022/11/10 17:29:28;;;;;;;;;;;;;;;11.98;90.44336;102505.1;;;;-78
2022/11/10 17:34:24;;;;;;;8.6;2;;;;;;;;;;;;;-77
2022/11/10 17:34:33;;;;;;;;;;;;;;;11.93;90.3457;102511;;;;-77
2022/11/10 17:39:25;;;;;;;;;;;;;;;11.9;90.14063;102512.6;;;;-77
2022/11/10 17:44:25;;;;;;;;;;;;;;;11.84;90.24023;102513;;;;-78
2022/11/10 17:49:25;;;;;;;;;;;;;;;11.8;90.1084;102516.1;;;;-77
2022/11/10 17:54:26;;;;;;;;;;;;;;;11.77;90.08105;102514.4;;;;-78
2022/11/10 17:59:26;;;;;;;;;;;;;;;11.72;90.25781;102518;;;;-78
2022/11/10 18:04:25;;;;;;;6.9;2.1;;;;;;;;;;;;;-77
2022/11/10 18:04:35;;;;;;;;;;;;;;;11.66;90.34473;102529.3;;;;-77
2022/11/10 18:09:25;;;;;;;;;;;;;;;11.63;90.39355;102532.2;;;;-78
2022/11/10 18:14:26;;;;;;;;;;;;;;;11.57;90.56152;102538.2;;;;-77
2022/11/10 18:24:28;;;;;;;;;;;;;;;11.53;90.45117;102538.8;;;;-78
2022/11/10 18:29:29;;;;;;;;;;;;;;;11.5;90.63281;102552.4;;;;-81
2022/11/10 18:34:25;;;;;;;;;;;;;;;11.49;90.74219;102540.7;;;;-78
2022/11/10 18:34:35;;;;;;;6.5;1.8;;;;;;;;;;;;;-78
2022/11/10 18:39:25;;;;;;;;;;;;;;;11.45;90.85352;102537.6;;;;-78
2022/11/10 18:44:25;;;;;;;;;;;;;;;11.42;90.94922;102545.6;;;;-78
2022/11/10 18:49:25;;;;;;;;;;;;;;;11.37;91.20313;102541.6;;;;-79
2022/11/10 18:54:25;;;;;;;;;;;;;;;11.35;91.23047;102545.7;;;;-78
2022/11/10 18:59:27;;;;;;;;;;;;;;;11.34;91.21973;102557.5;;;;-78
2022/11/10 19:04:26;;;;;;;;;;;;;;;11.33;91.32715;102561;;;;-78
2022/11/10 19:04:40;;;;;;;8.5;2;;;;;;;;;;;;;-78
2022/11/10 19:09:25;;;;;;;;;;;;;;;11.34;91.22949;102562.7;;;;-77
2022/11/10 19:14:27;;;;;;;;;;;;;;;11.35;91.24414;102554;;;;-78
2022/11/10 19:19:25;;;;;;;;;;;;;;;11.33;91.38184;102547.8;;;;-79
2022/11/10 19:24:26;;;;;;;;;;;;;;;11.3;91.44434;102551.2;;;;-77
2022/11/10 19:29:37;;;;;;;;;;;;;;;11.26;91.61133;102554.9;;;;-78
2022/11/10 19:34:26;;;;;;;;;;;;;;;11.24;91.60742;102569.9;;;;-79
2022/11/10 19:34:35;;;;;;;7.3;2.2;;;;;;;;;;;;;-79
2022/11/10 19:39:25;;;;;;;;;;;;;;;11.24;91.7168;102561.5;;;;-79
2022/11/10 19:44:25;;;;;;;;;;;;;;;11.21;91.82324;102559.5;;;;-78
2022/11/10 19:49:37;;;;;;;;;;;;;;;11.2;91.87598;102568.2;;;;-79
2022/11/10 19:54:27;;;;;;;;;;;;;;;11.19;91.95898;102571;;;;-79
2022/11/10 19:59:26;;;;;;;;;;;;;;;11.19;91.97363;102578;;;;-79
2022/11/10 20:04:27;;;;;;;;;;;;;;;11.18;92.04688;102564;;;;-78
2022/11/10 20:05:11;;;;;;;5.5;2.1;;;;;;;;;;;;;-78
2022/11/10 20:09:26;;;;;;;;;;;;;;;11.18;92.01367;102567.4;;;;-80
2022/11/10 20:14:26;;;;;;;;;;;;;;;11.16;92.06348;102562.4;;;;-79
2022/11/10 20:19:25;;;;;;;;;;;;;;;11.16;92.12988;102558.1;;;;-78
2022/11/10 20:24:25;;;;;;;;;;;;;;;11.14;92.13672;102556.3;;;;-78
2022/11/10 20:29:30;;;;;;;;;;;;;;;11.11;92.15332;102547.4;;;;-79
2022/11/10 20:34:26;;;;;;;;;;;;;;;11.08;92.26953;102567.5;;;;-79
2022/11/10 20:34:35;;;;;;;9.4;2.2;;;;;;;;;;;;;-79
2022/11/10 20:39:25;;;;;;;;;;;;;;;11.06;92.19727;102583.5;;;;-78
2022/11/10 20:44:25;;;;;;;;;;;;;;;11.06;92.45117;102587.3;;;;-78
2022/11/10 20:49:26;;;;;;;;;;;;;;;11.08;92.53418;102594.8;;;;-78
2022/11/10 20:54:25;;;;;;;;;;;;;;;11.11;92.41797;102599.7;;;;-78
2022/11/10 20:59:27;;;;;;;;;;;;;;;11.13;92.32324;102609.9;;;;-78
2022/11/10 21:04:29;;;;;;;;;;;;;;;11.14;92.37988;102621.5;;;;-78
2022/11/10 21:04:40;;;;;;;6.8;2.3;;;;;;;;;;;;;-78
2022/11/10 21:09:26;;;;;;;;;;;;;;;11.18;92.17969;102635.8;;;;-73
2022/11/10 21:14:26;;;;;;;;;;;;;;;11.2;92.22949;102645;;;;-74
2022/11/10 21:19:25;;;;;;;;;;;;;;;11.24;92.06934;102657.6;;;;-74
2022/11/10 21:24:26;;;;;;;;;;;;;;;11.27;92.02441;102673.9;;;;-73
2022/11/10 21:29:28;;;;;;;;;;;;;;;11.29;91.88281;102670;;;;-75
2022/11/10 21:34:25;;;;;;;;;;;;;;;11.31;91.86426;102656.1;;;;-73
2022/11/10 21:34:37;;;;;;;10.2;3.1;;;;;;;;;;;;;-73
2022/11/10 21:39:30;;;;;;;;;;;;;;;11.34;91.83887;102659.9;;;;-73
2022/11/10 21:44:30;;;;;;;;;;;;;;;11.37;91.71191;102655.3;;;;-74
2022/11/10 21:49:25;;;;;;;;;;;;;;;11.38;91.73535;102660;;;;-73
2022/11/10 21:54:25;;;;;;;;;;;;;;;11.4;91.71777;102673.7;;;;-78
2022/11/10 21:59:25;;;;;;;;;;;;;;;11.41;91.66406;102668.4;;;;-79
2022/11/10 22:04:31;;;;;;;;;;;;;;;11.42;91.64551;102673.8;;;;-78
2022/11/10 22:04:40;;;;;;;11.5;2.9;;;;;;;;;;;;;-78
2022/11/10 22:19:26;;;;;;;;;;;;;;;11.42;91.64551;102660.4;;;;-78
2022/11/10 22:24:29;;;;;;;;;;;;;;;11.42;91.66797;102648.5;;;;-78
2022/11/10 22:29:27;;;;;;;;;;;;;;;11.42;91.72168;102650.4;;;;-78
2022/11/10 22:34:25;;;;;;;;;;;;;;;11.41;91.70801;102653.3;;;;-78
2022/11/10 22:34:38;;;;;;;12.4;3.4;;;;;;;;;;;;;-78
2022/11/10 22:44:02;;;;;;;;;;;;;;;11.41;91.75293;102675.5;;;;-78
2022/11/10 22:44:25;;;;;;;;;;;;;;;11.41;91.71973;102678;;;;-78
2022/11/10 22:49:26;;;;;;;;;;;;;;;11.41;91.78418;102680.9;;;;-80
2022/11/10 22:54:26;;;;;;;;;;;;;;;11.39;91.76172;102686.4;;;;-79
2022/11/10 22:59:30;;;;;;;;;;;;;;;11.4;91.79492;102690.6;;;;-79
2022/11/10 23:04:25;;;;;;;;;;;;;;;11.39;91.88086;102684.8;;;;-78
2022/11/10 23:04:36;;;;;;;9;3.5;;;;;;;;;;;;;-77
2022/11/10 23:09:25;;;;;;;;;;;;;;;11.4;91.87207;102689.6;;;;-79
2022/11/10 23:14:26;;;;;;;;;;;;;;;11.4;91.87207;102705.3;;;;-77
2022/11/10 23:19:27;;;;;;;;;;;;;;;11.41;91.81836;102716.3;;;;-77
2022/11/10 23:24:25;;;;;;;;;;;;;;;11.41;91.85156;102719.9;;;;-77
2022/11/10 23:29:25;;;;;;;;;;;;;;;11.42;91.83398;102724;;;;-79
2022/11/10 23:34:25;;;;;;;;;;;;;;;11.42;91.83203;102720.6;;;;-77
2022/11/10 23:34:38;;;;;;;11.3;3.8;;;;;;;;;;;;;-78
2022/11/10 23:39:25;;;;;;;;;;;;;;;11.43;91.74707;102720;;;;-78
2022/11/10 23:44:25;;;;;;;;;;;;;;;11.45;91.70703;102717.5;;;;-77
2022/11/10 23:49:25;;;;;;;;;;;;;;;11.48;91.48047;102711.8;;;;-78
2022/11/10 23:54:28;;;;;;;;;;;;;;;11.52;91.38867;102714.3;;;;-79
2022/11/10 23:59:25;;;;;;;;;;;;;;;11.53;91.27051;102713.2;;;;-79
